Time;durP1;ratioP1;P1;durP2;ratioP2;P2;SDS_P1;SDS_P2;PMS_P1;PMS_P2;Temp;Humidity;BMP_temperature;BMP_pressure;BME280_temperature;BME280_humidity;BME280_pressure;Samples;Min_cycle;Max_cycle;Signal;HPM_P1;HPM_P2
2024/01/21 00:00:24;;;;;;;14.47;9.87;;;;;21.30;101366.00;;;;2052036;28;20850;-59
2024/01/21 00:01:24;;;;;;;15.30;9.43;;;;;21.30;101358.00;;;;2048867;28;20212;-59
2024/01/21 00:02:25;;;;;;;13.53;8.37;;;;;21.30;101364.00;;;;2043056;28;20209;-59
2024/01/21 00:03:25;;;;;;;10.73;7.80;;;;;21.20;101350.00;;;;2041190;28;20291;-59
2024/01/21 00:04:25;;;;;;;13.83;9.07;;;;;21.20;101349.00;;;;2049732;28;20216;-59
2024/01/21 00:05:26;;;;;;;13.67;9.60;;;;;21.20;101350.00;;;;2047363;28;20216;-59
2024/01/21 00:06:26;;;;;;;12.77;8.17;;;;;21.20;101357.00;;;;2049884;28;20266;-58
2024/01/21 00:07:27;;;;;;;12.97;8.50;;;;;21.20;101352.00;;;;2042036;28;20226;-59
2024/01/21 00:08:27;;;;;;;11.97;7.80;;;;;21.20;101357.00;;;;2053013;28;20219;-59
2024/01/21 00:09:28;;;;;;;13.33;9.13;;;;;21.20;101342.00;;;;2051550;28;20218;-59
2024/01/21 00:10:29;;;;;;;11.55;8.48;;;;;21.10;101349.00;;;;2048012;28;20602;-58
2024/01/21 00:11:29;;;;;;;13.90;8.70;;;;;21.20;101337.00;;;;2045167;28;20208;-58
2024/01/21 00:12:29;;;;;;;13.40;8.83;;;;;21.10;101341.00;;;;2038298;28;20581;-59
2024/01/21 00:13:30;;;;;;;10.43;7.77;;;;;21.10;101329.00;;;;2048477;28;20732;-60
2024/01/21 00:14:30;;;;;;;14.77;8.10;;;;;21.10;101336.00;;;;2050036;28;20339;-60
2024/01/21 00:15:30;;;;;;;12.80;8.30;;;;;21.10;101329.00;;;;2040589;28;20241;-59
2024/01/21 00:16:31;;;;;;;13.40;8.77;;;;;21.10;101348.00;;;;2045528;28;20245;-59
2024/01/21 00:17:31;;;;;;;12.40;7.90;;;;;21.10;101327.00;;;;2038077;28;20204;-58
2024/01/21 00:18:31;;;;;;;11.40;7.57;;;;;21.10;101328.00;;;;2045135;28;20213;-58
2024/01/21 00:19:32;;;;;;;13.43;8.87;;;;;21.10;101326.00;;;;2050029;28;20854;-60
2024/01/21 00:20:32;;;;;;;11.03;7.50;;;;;21.10;101316.00;;;;2047747;28;20623;-59
2024/01/21 00:21:33;;;;;;;12.73;7.57;;;;;21.10;101316.00;;;;2048159;28;20213;-60
2024/01/21 00:22:33;;;;;;;12.47;7.70;;;;;21.10;101312.00;;;;2038027;28;20307;-59
2024/01/21 00:23:33;;;;;;;11.83;7.80;;;;;21.10;101301.00;;;;2044289;28;20259;-58
2024/01/21 00:24:34;;;;;;;11.90;7.53;;;;;21.10;101313.00;;;;2045127;28;20212;-59
2024/01/21 00:25:34;;;;;;;9.07;6.93;;;;;21.10;101314.00;;;;2044600;28;20215;-59
2024/01/21 00:26:34;;;;;;;11.83;7.53;;;;;21.00;101306.00;;;;2045974;28;20232;-59
2024/01/21 00:27:36;;;;;;;10.23;7.67;;;;;21.10;101303.00;;;;2037140;28;20212;-59
2024/01/21 00:28:36;;;;;;;11.70;7.25;;;;;21.10;101302.00;;;;2052972;28;20632;-60
2024/01/21 00:29:36;;;;;;;10.90;6.97;;;;;21.10;101294.00;;;;2046388;28;20259;-59
2024/01/21 00:30:37;;;;;;;9.63;6.80;;;;;21.10;101299.00;;;;2041188;28;20231;-59
2024/01/21 00:31:37;;;;;;;11.07;7.07;;;;;21.00;101304.00;;;;2045024;28;20216;-60
2024/01/21 00:32:37;;;;;;;8.67;6.90;;;;;21.00;101291.00;;;;2037054;28;20236;-59
2024/01/21 00:33:37;;;;;;;11.10;7.50;;;;;20.50;101299.00;;;;2053606;28;20215;-60
2024/01/21 00:34:38;;;;;;;10.70;7.07;;;;;21.00;101297.00;;;;2056995;28;20215;-59
2024/01/21 00:35:38;;;;;;;10.37;6.10;;;;;21.00;101296.00;;;;2051217;28;20326;-60
2024/01/21 00:36:39;;;;;;;10.37;6.57;;;;;21.00;101288.00;;;;2044243;28;20224;-60
2024/01/21 00:37:39;;;;;;;10.03;6.60;;;;;21.00;101299.00;;;;2035873;28;20689;-59
2024/01/21 00:38:41;;;;;;;9.57;6.07;;;;;21.00;101291.00;;;;2043356;28;20774;-59
2024/01/21 00:39:41;;;;;;;9.07;6.03;;;;;21.00;101295.00;;;;2044761;28;20630;-60
2024/01/21 00:40:42;;;;;;;8.07;5.80;;;;;21.00;101288.00;;;;2043981;28;20220;-59
2024/01/21 00:41:42;;;;;;;8.43;5.53;;;;;21.00;101287.00;;;;2044715;28;20266;-59
2024/01/21 00:42:43;;;;;;;8.83;6.57;;;;;20.90;101280.00;;;;2038426;28;20283;-59
2024/01/21 00:43:43;;;;;;;11.97;6.40;;;;;21.00;101284.00;;;;2055729;28;20220;-60
2024/01/21 00:44:43;;;;;;;7.40;5.50;;;;;21.00;101280.00;;;;2050428;28;20211;-59
2024/01/21 00:45:43;;;;;;;9.90;5.80;;;;;21.00;101282.00;;;;2045524;28;20213;-59
2024/01/21 00:46:44;;;;;;;8.37;5.70;;;;;21.00;101277.00;;;;2051192;28;20250;-59
2024/01/21 00:47:44;;;;;;;9.57;6.10;;;;;21.00;101270.00;;;;2042394;28;20224;-59
2024/01/21 00:48:45;;;;;;;9.27;6.17;;;;;21.00;101271.00;;;;2044927;28;20220;-59
2024/01/21 00:49:45;;;;;;;8.37;6.13;;;;;21.00;101268.00;;;;2045430;28;20220;-59
2024/01/21 00:50:45;;;;;;;9.20;5.80;;;;;20.90;101264.00;;;;2042421;28;20279;-59
2024/01/21 00:51:46;;;;;;;9.43;5.83;;;;;21.00;101258.00;;;;2046337;28;20333;-59
2024/01/21 00:52:46;;;;;;;8.83;5.90;;;;;21.00;101258.00;;;;2039424;28;20300;-59
2024/01/21 00:53:46;;;;;;;8.57;5.27;;;;;20.90;101262.00;;;;2051637;28;20219;-59
2024/01/21 00:54:47;;;;;;;7.57;5.00;;;;;20.90;101261.00;;;;2052253;28;20716;-58
2024/01/21 00:55:47;;;;;;;8.50;5.90;;;;;20.90;101260.00;;;;2046102;28;20216;-60
2024/01/21 00:56:48;;;;;;;8.40;5.10;;;;;21.00;101255.00;;;;2044205;28;20628;-60
2024/01/21 00:57:48;;;;;;;7.00;4.97;;;;;20.90;101254.00;;;;2035408;28;20315;-59
2024/01/21 00:58:48;;;;;;;7.33;5.43;;;;;21.00;101248.00;;;;2053163;28;20230;-58
2024/01/21 00:59:49;;;;;;;7.37;5.27;;;;;20.90;101243.00;;;;2052339;28;20219;-60
2024/01/21 01:00:49;;;;;;;7.17;5.00;;;;;20.90;101180.00;;;;2049862;28;20303;-60
2024/01/21 01:01:49;;;;;;;6.60;5.17;;;;;20.90;101249.00;;;;2048639;28;20212;-61
2024/01/21 01:02:50;;;;;;;7.33;5.07;;;;;20.90;101240.00;;;;2041328;28;20227;-60
2024/01/21 01:03:50;;;;;;;6.97;4.60;;;;;20.90;101243.00;;;;2047998;28;20278;-60
2024/01/21 01:04:51;;;;;;;7.87;5.10;;;;;20.90;101229.00;;;;2052509;28;20215;-60
2024/01/21 01:05:51;;;;;;;7.77;5.10;;;;;20.90;101243.00;;;;2046471;28;20219;-59
2024/01/21 01:06:52;;;;;;;7.13;5.03;;;;;20.90;101240.00;;;;2048680;28;20470;-58
2024/01/21 01:07:52;;;;;;;7.53;4.80;;;;;20.90;101237.00;;;;2033911;28;20311;-60
2024/01/21 01:08:52;;;;;;;7.80;4.77;;;;;20.90;101231.00;;;;2045032;28;20834;-59
2024/01/21 01:09:53;;;;;;;8.90;4.87;;;;;20.90;101236.00;;;;2061026;28;20217;-59
2024/01/21 01:10:53;;;;;;;6.97;4.67;;;;;20.90;101236.00;;;;2047318;28;20216;-60
2024/01/21 01:11:53;;;;;;;7.27;5.00;;;;;20.90;101228.00;;;;2053167;28;20310;-58
2024/01/21 01:12:55;;;;;;;7.03;4.63;;;;;20.90;101228.00;;;;2040179;28;20272;-60
2024/01/21 01:13:56;;;;;;;8.00;4.45;;;;;19.90;101226.00;;;;2057724;28;20992;-59
2024/01/21 01:14:56;;;;;;;6.87;4.37;;;;;20.80;101234.00;;;;2056974;28;20258;-60
2024/01/21 01:15:58;;;;;;;6.87;4.13;;;;;20.80;101235.00;;;;2048764;28;20215;-59
2024/01/21 01:16:59;;;;;;;6.50;3.80;;;;;20.80;101232.00;;;;2052859;28;20216;-59
2024/01/21 01:17:59;;;;;;;6.73;3.63;;;;;20.90;101234.00;;;;2042524;28;20259;-59
2024/01/21 01:18:59;;;;;;;6.57;4.93;;;;;20.90;101235.00;;;;2053692;28;20299;-59
2024/01/21 01:20:00;;;;;;;5.77;3.80;;;;;20.80;101228.00;;;;2053624;28;20215;-59
2024/01/21 01:21:00;;;;;;;6.47;4.33;;;;;20.80;101236.00;;;;2051420;28;20278;-59
2024/01/21 01:22:01;;;;;;;5.57;3.67;;;;;20.80;101232.00;;;;2045842;28;20259;-59
2024/01/21 01:23:01;;;;;;;7.30;4.60;;;;;20.30;101229.00;;;;2039418;28;20241;-59
2024/01/21 01:24:01;;;;;;;6.93;3.97;;;;;20.80;101228.00;;;;2044584;28;20220;-59
2024/01/21 01:25:02;;;;;;;7.00;3.80;;;;;20.80;101211.00;;;;2057098;28;20294;-60
2024/01/21 01:26:02;;;;;;;5.80;4.10;;;;;20.80;101217.00;;;;2052488;28;20250;-59
2024/01/21 01:27:03;;;;;;;6.30;3.80;;;;;20.80;101226.00;;;;2037397;29;20225;-59
2024/01/21 01:28:03;;;;;;;5.77;4.00;;;;;20.80;101218.00;;;;2038087;28;20318;-59
2024/01/21 01:29:04;;;;;;;4.90;3.40;;;;;20.80;101228.00;;;;2038535;29;20209;-59
2024/01/21 01:30:05;;;;;;;6.33;3.53;;;;;20.80;101217.00;;;;2049290;28;20223;-59
2024/01/21 01:31:05;;;;;;;5.28;3.85;;;;;20.80;101217.00;;;;2039719;28;20302;-59
2024/01/21 01:32:05;;;;;;;6.00;3.80;;;;;20.80;101216.00;;;;2044930;28;21049;-59
2024/01/21 01:33:06;;;;;;;6.27;3.80;;;;;20.40;101221.00;;;;2037345;28;20232;-59
2024/01/21 01:34:07;;;;;;;5.80;3.57;;;;;20.80;101214.00;;;;2046375;28;20255;-59
2024/01/21 01:35:08;;;;;;;6.23;3.50;;;;;20.80;101214.00;;;;2050485;28;20279;-59
2024/01/21 01:36:08;;;;;;;5.55;3.75;;;;;20.80;101215.00;;;;2048315;28;20240;-59
2024/01/21 01:37:09;;;;;;;5.83;3.80;;;;;20.70;101215.00;;;;2047414;28;20234;-59
2024/01/21 01:38:12;;;;;;;4.70;3.40;;;;;20.70;101216.00;;;;2036579;28;20236;-59
2024/01/21 01:39:12;;;;;;;5.45;3.55;;;;;20.80;101214.00;;;;2046159;28;20307;-59
2024/01/21 01:40:17;;;;;;;5.60;3.40;;;;;20.80;101201.00;;;;2045625;28;20220;-59
2024/01/21 01:41:17;;;;;;;5.15;2.97;;;;;20.70;101198.00;;;;2045843;28;20681;-59
2024/01/21 01:42:18;;;;;;;5.43;3.67;;;;;20.80;101216.00;;;;2048474;28;20295;-59
2024/01/21 01:43:18;;;;;;;5.10;3.40;;;;;20.70;101205.00;;;;2038541;28;20220;-59
2024/01/21 01:44:18;;;;;;;5.33;3.23;;;;;20.70;101201.00;;;;2051875;28;20230;-59
2024/01/21 01:45:19;;;;;;;5.20;3.30;;;;;20.80;101194.00;;;;2061342;28;20219;-59
2024/01/21 01:46:19;;;;;;;5.63;3.33;;;;;20.80;101200.00;;;;2057621;28;20215;-59
2024/01/21 01:47:19;;;;;;;5.57;3.43;;;;;20.70;101198.00;;;;2051588;28;20246;-59
2024/01/21 01:48:20;;;;;;;4.20;3.07;;;;;20.70;101202.00;;;;2034559;28;20612;-61
2024/01/21 01:49:20;;;;;;;4.63;3.30;;;;;20.70;101213.00;;;;2041212;29;20224;-60
2024/01/21 01:50:21;;;;;;;5.10;3.07;;;;;20.70;101194.00;;;;2052547;28;20239;-59
2024/01/21 01:51:21;;;;;;;5.30;2.87;;;;;20.70;101204.00;;;;2052357;28;20207;-59
2024/01/21 01:52:21;;;;;;;4.10;2.70;;;;;20.30;101202.00;;;;2053114;28;20215;-60
2024/01/21 01:53:22;;;;;;;4.20;3.23;;;;;20.20;101205.00;;;;2046137;28;20246;-60
2024/01/21 01:54:23;;;;;;;4.80;3.17;;;;;20.70;101202.00;;;;2045365;28;20216;-59
2024/01/21 01:55:23;;;;;;;5.88;3.58;;;;;20.70;101203.00;;;;2049562;28;20220;-59
2024/01/21 01:56:23;;;;;;;4.97;3.00;;;;;20.70;101200.00;;;;2051861;28;20214;-59
2024/01/21 01:57:24;;;;;;;5.07;3.20;;;;;20.60;101206.00;;;;2051523;28;20235;-63
2024/01/21 01:58:29;;;;;;;4.80;3.13;;;;;20.70;101203.00;;;;2029685;29;20209;-58
2024/01/21 01:59:29;;;;;;;6.13;3.22;;;;;20.70;101205.00;;;;2052152;28;20290;-59
2024/01/21 02:00:30;;;;;;;4.80;3.07;;;;;20.70;101201.00;;;;2048632;28;20211;-58
2024/01/21 02:01:30;;;;;;;4.40;3.03;;;;;20.70;101205.00;;;;2050036;28;20271;-58
2024/01/21 02:02:30;;;;;;;5.17;3.30;;;;;20.70;101212.00;;;;2039751;28;20215;-58
2024/01/21 02:03:31;;;;;;;5.70;2.87;;;;;20.70;101195.00;;;;2046973;28;20212;-59
2024/01/21 02:04:31;;;;;;;4.60;2.87;;;;;20.70;101195.00;;;;2050778;28;20298;-59
2024/01/21 02:05:32;;;;;;;4.70;2.80;;;;;20.60;101196.00;;;;2046433;28;20212;-59
2024/01/21 02:06:32;;;;;;;4.73;2.57;;;;;20.60;101201.00;;;;2048602;28;20776;-59
2024/01/21 02:07:32;;;;;;;5.07;2.50;;;;;20.60;101257.00;;;;2037531;28;20223;-59
2024/01/21 02:08:33;;;;;;;4.77;2.93;;;;;20.60;101193.00;;;;2053190;28;20224;-59
2024/01/21 02:09:33;;;;;;;4.37;3.00;;;;;20.70;101195.00;;;;2050292;28;20223;-59
2024/01/21 02:10:33;;;;;;;4.50;2.83;;;;;20.60;101184.00;;;;2054681;28;20239;-59
2024/01/21 02:11:34;;;;;;;4.30;2.80;;;;;20.60;101189.00;;;;2038158;28;20284;-59
2024/01/21 02:12:34;;;;;;;5.07;2.93;;;;;20.60;101184.00;;;;2035897;28;20271;-59
2024/01/21 02:13:35;;;;;;;4.20;2.53;;;;;20.60;101184.00;;;;2045802;28;21055;-59
2024/01/21 02:14:35;;;;;;;3.93;2.57;;;;;20.60;101187.00;;;;2056846;28;20226;-59
2024/01/21 02:15:36;;;;;;;5.30;2.50;;;;;20.60;101191.00;;;;2047563;28;20215;-59
2024/01/21 02:16:36;;;;;;;6.37;2.87;;;;;20.60;101183.00;;;;2044041;28;20231;-59
2024/01/21 02:17:36;;;;;;;5.13;2.90;;;;;20.60;101188.00;;;;2041599;28;20219;-59
2024/01/21 02:18:37;;;;;;;5.70;2.83;;;;;20.60;101155.00;;;;2057968;28;20223;-59
2024/01/21 02:19:38;;;;;;;3.83;2.20;;;;;20.60;101173.00;;;;2039967;28;20232;-59
2024/01/21 02:20:39;;;;;;;4.45;2.80;;;;;20.60;101173.00;;;;2038659;28;20315;-59
2024/01/21 02:21:39;;;;;;;4.57;2.60;;;;;20.60;101214.00;;;;2041753;28;20265;-59
2024/01/21 02:22:40;;;;;;;4.40;2.70;;;;;20.10;101173.00;;;;2038336;28;20698;-59
2024/01/21 02:23:40;;;;;;;4.13;2.60;;;;;20.60;101171.00;;;;2046346;28;20700;-59
2024/01/21 02:24:40;;;;;;;3.87;2.60;;;;;20.60;101164.00;;;;2052587;28;20227;-59
2024/01/21 02:25:41;;;;;;;4.60;2.80;;;;;20.50;101154.00;;;;2054269;28;20278;-59
2024/01/21 02:26:41;;;;;;;4.20;2.30;;;;;20.50;101160.00;;;;2047868;28;20228;-59
2024/01/21 02:27:41;;;;;;;4.23;2.40;;;;;20.60;101148.00;;;;2038127;28;20250;-59
2024/01/21 02:28:42;;;;;;;4.03;2.37;;;;;20.60;101142.00;;;;2047742;28;20614;-58
2024/01/21 02:29:42;;;;;;;3.83;2.33;;;;;20.50;101135.00;;;;2051160;28;20244;-58
2024/01/21 02:30:42;;;;;;;4.70;2.80;;;;;20.50;101133.00;;;;2052428;28;20215;-58
2024/01/21 02:31:43;;;;;;;3.80;2.43;;;;;20.60;101129.00;;;;2052789;28;20750;-59
2024/01/21 02:32:43;;;;;;;3.90;2.50;;;;;20.50;101135.00;;;;2041377;28;20828;-58
2024/01/21 02:33:43;;;;;;;3.90;2.40;;;;;20.50;101134.00;;;;2044518;28;20809;-59
2024/01/21 02:34:44;;;;;;;4.07;2.00;;;;;20.50;101184.00;;;;2047681;28;20591;-59
2024/01/21 02:35:44;;;;;;;4.40;2.40;;;;;20.50;101168.00;;;;2044278;28;20651;-59
2024/01/21 02:36:45;;;;;;;3.37;2.00;;;;;20.50;101116.00;;;;2040304;28;20760;-59
2024/01/21 02:37:45;;;;;;;3.30;2.10;;;;;20.50;101128.00;;;;2047239;28;20735;-59
2024/01/21 02:38:45;;;;;;;3.53;2.10;;;;;20.50;101120.00;;;;2060467;28;20219;-59
2024/01/21 02:39:46;;;;;;;3.90;1.93;;;;;20.50;101121.00;;;;2043055;28;20284;-59
2024/01/21 02:40:46;;;;;;;3.07;1.80;;;;;20.50;101117.00;;;;2042689;28;20220;-59
2024/01/21 02:41:46;;;;;;;4.53;2.50;;;;;20.40;101119.00;;;;2049491;28;20223;-59
2024/01/21 02:42:47;;;;;;;3.97;2.63;;;;;20.50;101120.00;;;;2043783;28;20294;-59
2024/01/21 02:43:47;;;;;;;3.90;2.40;;;;;20.50;101118.00;;;;2043377;28;20257;-59
2024/01/21 02:44:49;;;;;;;4.50;2.47;;;;;20.50;101125.00;;;;2046257;28;20231;-59
2024/01/21 02:45:50;;;;;;;3.88;2.45;;;;;20.50;101126.00;;;;2049280;28;20235;-59
2024/01/21 02:46:50;;;;;;;4.10;2.80;;;;;20.50;101122.00;;;;2051717;28;20266;-59
2024/01/21 02:47:50;;;;;;;5.30;3.00;;;;;20.50;101116.00;;;;2042217;28;20235;-58
2024/01/21 02:48:51;;;;;;;3.80;2.27;;;;;20.50;101125.00;;;;2048395;28;20223;-58
2024/01/21 02:49:51;;;;;;;5.23;2.83;;;;;20.50;101127.00;;;;2053441;28;20214;-59
2024/01/21 02:50:51;;;;;;;3.20;2.33;;;;;20.40;101110.00;;;;2054301;28;20223;-61
2024/01/21 02:51:52;;;;;;;3.83;2.17;;;;;20.50;101116.00;;;;2046456;28;20216;-60
2024/01/21 02:52:52;;;;;;;3.97;2.50;;;;;20.50;101115.00;;;;2039844;28;20282;-61
2024/01/21 02:53:52;;;;;;;3.90;2.40;;;;;20.40;101104.00;;;;2047974;28;20306;-59
2024/01/21 02:54:53;;;;;;;3.63;2.17;;;;;20.40;101111.00;;;;2053634;28;20240;-60
2024/01/21 02:55:53;;;;;;;3.80;2.07;;;;;20.40;101115.00;;;;2049045;28;20244;-58
2024/01/21 02:56:53;;;;;;;3.97;2.33;;;;;20.50;101112.00;;;;2049824;28;20208;-58
2024/01/21 02:57:54;;;;;;;3.43;2.20;;;;;20.40;101103.00;;;;2043660;28;20238;-58
2024/01/21 02:58:54;;;;;;;3.90;2.40;;;;;20.40;101102.00;;;;2048053;28;20216;-58
2024/01/21 02:59:55;;;;;;;6.10;2.63;;;;;20.40;101107.00;;;;2046502;28;20314;-58
2024/01/21 03:00:55;;;;;;;4.53;2.90;;;;;20.40;101088.00;;;;2049376;28;20802;-58
2024/01/21 03:01:57;;;;;;;2.73;1.80;;;;;20.40;101093.00;;;;2053099;28;20255;-58
2024/01/21 03:02:58;;;;;;;4.28;2.50;;;;;20.40;101088.00;;;;2036928;28;20228;-58
2024/01/21 03:03:58;;;;;;;4.05;2.28;;;;;20.50;101089.00;;;;2044284;28;20224;-59
2024/01/21 03:04:59;;;;;;;3.57;2.13;;;;;20.40;101085.00;;;;2050105;28;20242;-59
2024/01/21 03:05:59;;;;;;;3.90;2.67;;;;;20.40;101096.00;;;;2047179;28;20321;-60
2024/01/21 03:06:59;;;;;;;4.17;2.30;;;;;20.40;101100.00;;;;2052069;28;20282;-59
2024/01/21 03:08:00;;;;;;;3.47;2.10;;;;;20.40;101096.00;;;;2036622;28;20265;-59
2024/01/21 03:09:00;;;;;;;2.87;1.90;;;;;20.40;101095.00;;;;2053800;28;20214;-59
2024/01/21 03:10:00;;;;;;;3.00;2.00;;;;;20.40;101096.00;;;;2049850;28;20231;-59
2024/01/21 03:11:01;;;;;;;3.63;2.23;;;;;20.40;101093.00;;;;2052951;28;20207;-59
2024/01/21 03:12:01;;;;;;;4.57;2.37;;;;;20.40;101103.00;;;;2052485;28;20320;-59
2024/01/21 03:13:02;;;;;;;3.40;1.80;;;;;20.40;101087.00;;;;2033825;28;20235;-59
2024/01/21 03:14:02;;;;;;;3.33;2.20;;;;;20.40;101121.00;;;;2038995;28;20220;-59
2024/01/21 03:15:04;;;;;;;3.10;2.20;;;;;20.40;101091.00;;;;2044096;28;20216;-59
2024/01/21 03:16:04;;;;;;;3.15;1.85;;;;;20.40;101089.00;;;;2045567;28;20299;-59
2024/01/21 03:17:05;;;;;;;3.10;2.10;;;;;20.40;101088.00;;;;2047296;28;20259;-59
2024/01/21 03:18:05;;;;;;;3.67;2.13;;;;;20.40;100941.00;;;;2040203;28;20250;-59
2024/01/21 03:19:06;;;;;;;3.57;2.13;;;;;20.40;101090.00;;;;2049343;28;21205;-59
2024/01/21 03:20:06;;;;;;;3.00;1.90;;;;;20.40;101084.00;;;;2057207;28;20257;-60
2024/01/21 03:21:07;;;;;;;3.60;2.23;;;;;20.40;101077.00;;;;2050754;28;20235;-59
2024/01/21 03:22:07;;;;;;;3.90;2.27;;;;;20.40;101092.00;;;;2046075;28;20237;-59
2024/01/21 03:23:08;;;;;;;3.20;1.90;;;;;20.40;101083.00;;;;2031435;28;20232;-59
2024/01/21 03:24:08;;;;;;;3.00;1.60;;;;;20.40;101090.00;;;;2043120;28;20247;-59
2024/01/21 03:25:08;;;;;;;3.57;1.90;;;;;20.40;101081.00;;;;2052773;28;20219;-59
2024/01/21 03:26:09;;;;;;;3.40;1.50;;;;;20.40;101088.00;;;;2045684;28;20235;-59
2024/01/21 03:27:09;;;;;;;3.90;2.07;;;;;20.40;101080.00;;;;2051357;28;20608;-59
2024/01/21 03:28:09;;;;;;;3.70;2.00;;;;;20.40;101078.00;;;;2038008;28;20739;-59
2024/01/21 03:29:10;;;;;;;3.97;2.00;;;;;20.40;101071.00;;;;2046862;28;20666;-59
2024/01/21 03:30:10;;;;;;;2.80;1.90;;;;;20.40;101077.00;;;;2046749;28;20224;-59
2024/01/21 03:31:10;;;;;;;2.57;1.43;;;;;20.30;101074.00;;;;2046205;28;20220;-59
2024/01/21 03:32:11;;;;;;;4.07;2.13;;;;;20.30;101079.00;;;;2044941;28;20212;-59
2024/01/21 03:33:11;;;;;;;3.93;2.27;;;;;20.30;101069.00;;;;2037678;28;20310;-59
2024/01/21 03:34:11;;;;;;;3.03;1.83;;;;;20.20;101072.00;;;;2046366;28;20228;-59
2024/01/21 03:35:12;;;;;;;4.30;1.80;;;;;20.30;101069.00;;;;2048283;28;20246;-58
2024/01/21 03:36:12;;;;;;;4.10;2.20;;;;;20.30;101063.00;;;;2050397;28;20314;-58
2024/01/21 03:37:12;;;;;;;3.13;1.50;;;;;20.30;101056.00;;;;2043633;28;20270;-58
2024/01/21 03:38:13;;;;;;;3.17;1.97;;;;;20.30;101060.00;;;;2039392;28;20263;-58
2024/01/21 03:39:13;;;;;;;3.57;1.90;;;;;20.40;101059.00;;;;2058271;28;20250;-59
2024/01/21 03:40:14;;;;;;;3.20;1.63;;;;;20.40;101056.00;;;;2042628;28;20276;-58
2024/01/21 03:41:14;;;;;;;3.70;2.33;;;;;20.40;101049.00;;;;2042816;28;20232;-58
2024/01/21 03:42:15;;;;;;;3.53;1.80;;;;;20.30;101043.00;;;;2037701;28;20252;-58
2024/01/21 03:43:17;;;;;;;3.30;1.80;;;;;20.30;101037.00;;;;2034574;28;20227;-59
2024/01/21 03:44:18;;;;;;;2.95;1.75;;;;;20.40;101053.00;;;;2053099;28;20462;-58
2024/01/21 03:45:18;;;;;;;2.80;2.00;;;;;20.30;101038.00;;;;2045120;28;20235;-58
2024/01/21 03:46:18;;;;;;;4.40;2.23;;;;;20.30;101028.00;;;;2045268;28;20563;-58
2024/01/21 03:47:19;;;;;;;2.80;1.80;;;;;20.30;101043.00;;;;2043662;28;20648;-59
2024/01/21 03:48:19;;;;;;;3.30;2.00;;;;;20.30;101039.00;;;;2039706;28;20252;-58
2024/01/21 03:49:19;;;;;;;3.33;1.70;;;;;20.30;101033.00;;;;2048602;28;20648;-58
2024/01/21 03:50:20;;;;;;;3.70;2.30;;;;;20.30;101039.00;;;;2045993;28;20215;-59
2024/01/21 03:51:20;;;;;;;2.73;1.67;;;;;20.30;101031.00;;;;2048595;28;20207;-58
2024/01/21 03:52:21;;;;;;;2.57;1.33;;;;;20.30;101036.00;;;;2049990;28;20207;-58
2024/01/21 03:53:21;;;;;;;2.87;1.67;;;;;20.30;101025.00;;;;2039920;28;20294;-59
2024/01/21 03:54:21;;;;;;;3.47;1.90;;;;;20.30;101026.00;;;;2048781;28;20633;-58
2024/01/21 03:55:22;;;;;;;3.20;2.20;;;;;20.30;101033.00;;;;2051565;28;20798;-58
2024/01/21 03:56:23;;;;;;;3.30;2.00;;;;;20.30;101029.00;;;;2051029;28;20679;-59
2024/01/21 03:57:24;;;;;;;3.57;2.00;;;;;20.30;101027.00;;;;2056940;28;20210;-59
2024/01/21 03:58:24;;;;;;;3.53;2.00;;;;;20.20;101021.00;;;;2041917;28;20517;-59
2024/01/21 03:59:24;;;;;;;3.37;1.70;;;;;20.20;101018.00;;;;2047420;28;20783;-59
2024/01/21 04:00:25;;;;;;;3.93;1.97;;;;;20.20;101023.00;;;;2044490;28;20688;-59
2024/01/21 04:01:25;;;;;;;2.50;1.60;;;;;20.20;101012.00;;;;2043462;28;22177;-59
2024/01/21 04:02:26;;;;;;;2.40;1.20;;;;;20.20;101021.00;;;;2052004;28;20624;-59
2024/01/21 04:03:26;;;;;;;2.95;2.08;;;;;20.20;101020.00;;;;2046133;28;20215;-59
2024/01/21 04:04:27;;;;;;;3.40;1.83;;;;;20.20;101013.00;;;;2050713;28;20666;-59
2024/01/21 04:05:28;;;;;;;3.00;2.10;;;;;20.20;101023.00;;;;2047844;28;20582;-63
2024/01/21 04:06:28;;;;;;;3.20;1.77;;;;;20.20;101011.00;;;;2046961;28;20188;-59
2024/01/21 04:07:31;;;;;;;3.30;1.77;;;;;20.20;101007.00;;;;2039850;28;20227;-60
2024/01/21 04:08:32;;;;;;;3.15;1.77;;;;;20.20;101016.00;;;;2047981;28;20218;-59
2024/01/21 04:09:32;;;;;;;3.60;1.97;;;;;20.20;101002.00;;;;2051302;28;20222;-59
2024/01/21 04:10:32;;;;;;;3.10;1.70;;;;;20.20;101000.00;;;;2052710;28;20211;-59
2024/01/21 04:11:33;;;;;;;2.50;1.43;;;;;20.20;101005.00;;;;2050383;28;20601;-59
2024/01/21 04:12:33;;;;;;;3.00;1.70;;;;;20.20;100997.00;;;;2040500;28;20219;-59
2024/01/21 04:13:34;;;;;;;2.90;1.60;;;;;20.20;101005.00;;;;2043333;28;20227;-59
2024/01/21 04:14:34;;;;;;;2.63;1.50;;;;;20.20;100996.00;;;;2046876;28;20211;-59
2024/01/21 04:15:34;;;;;;;2.97;1.43;;;;;20.20;101001.00;;;;2044725;28;20251;-59
2024/01/21 04:16:35;;;;;;;2.60;1.70;;;;;20.20;100999.00;;;;2046438;28;20218;-59
2024/01/21 04:17:35;;;;;;;2.93;1.53;;;;;19.60;100997.00;;;;2041011;28;20239;-59
2024/01/21 04:18:35;;;;;;;2.50;1.50;;;;;20.20;101018.00;;;;2045172;28;20689;-59
2024/01/21 04:19:36;;;;;;;3.20;1.60;;;;;20.20;100997.00;;;;2051348;28;20216;-59
2024/01/21 04:20:36;;;;;;;3.17;1.57;;;;;20.20;100991.00;;;;2058107;28;20235;-59
2024/01/21 04:21:36;;;;;;;2.93;1.50;;;;;20.20;100997.00;;;;2048056;28;20215;-59
2024/01/21 04:22:37;;;;;;;3.30;1.97;;;;;20.20;100998.00;;;;2038160;28;20213;-59
2024/01/21 04:23:37;;;;;;;2.97;1.47;;;;;20.20;100997.00;;;;2049578;28;20262;-59
2024/01/21 04:24:37;;;;;;;3.37;1.60;;;;;20.20;100992.00;;;;2051992;28;20232;-59
2024/01/21 04:25:38;;;;;;;3.03;1.83;;;;;20.20;100890.00;;;;2045666;28;20204;-59
2024/01/21 04:26:38;;;;;;;3.53;1.90;;;;;20.20;100994.00;;;;2048834;28;20231;-59
2024/01/21 04:27:39;;;;;;;2.90;1.53;;;;;20.20;100986.00;;;;2042207;28;20784;-59
2024/01/21 04:28:39;;;;;;;3.10;1.70;;;;;20.20;100983.00;;;;2057189;28;20275;-59
2024/01/21 04:29:39;;;;;;;2.80;1.63;;;;;19.80;100983.00;;;;2056173;28;20203;-58
2024/01/21 04:30:40;;;;;;;3.50;1.70;;;;;20.20;100983.00;;;;2048333;28;20204;-58
2024/01/21 04:31:43;;;;;;;2.63;1.63;;;;;20.20;100987.00;;;;2055797;28;20236;-58
2024/01/21 04:32:44;;;;;;;2.60;1.63;;;;;20.20;100985.00;;;;2039126;28;20205;-58
2024/01/21 04:33:44;;;;;;;2.97;1.57;;;;;20.20;100979.00;;;;2050471;28;20232;-58
2024/01/21 04:34:44;;;;;;;2.70;1.70;;;;;20.10;100977.00;;;;2051073;28;20268;-58
2024/01/21 04:35:45;;;;;;;2.30;1.27;;;;;20.10;100980.00;;;;2041989;28;20209;-58
2024/01/21 04:36:45;;;;;;;2.60;1.50;;;;;20.10;100983.00;;;;2044037;28;20240;-58
2024/01/21 04:37:46;;;;;;;2.50;1.70;;;;;20.10;100991.00;;;;2040697;28;20238;-59
2024/01/21 04:38:47;;;;;;;4.00;1.45;;;;;20.10;100984.00;;;;2054914;28;20219;-59
2024/01/21 04:39:47;;;;;;;3.57;1.83;;;;;20.10;100976.00;;;;2046867;28;20292;-59
2024/01/21 04:40:47;;;;;;;2.93;1.43;;;;;20.10;100973.00;;;;2049024;28;20597;-59
2024/01/21 04:41:48;;;;;;;2.53;1.40;;;;;20.10;100976.00;;;;2049658;28;20593;-59
2024/01/21 04:42:49;;;;;;;2.73;1.60;;;;;20.10;100975.00;;;;2036655;28;20581;-58
2024/01/21 04:43:49;;;;;;;2.90;1.70;;;;;20.10;100973.00;;;;2049179;28;20457;-58
2024/01/21 04:44:49;;;;;;;3.07;1.63;;;;;20.10;100953.00;;;;2049031;28;20212;-59
2024/01/21 04:45:50;;;;;;;2.63;1.60;;;;;20.10;100959.00;;;;2046665;28;20748;-58
2024/01/21 04:46:50;;;;;;;3.10;1.53;;;;;20.10;100957.00;;;;2045982;28;20723;-58
2024/01/21 04:47:51;;;;;;;3.47;1.50;;;;;20.20;100957.00;;;;2038960;28;20240;-58
2024/01/21 04:48:51;;;;;;;3.33;1.53;;;;;20.10;100948.00;;;;2047047;28;20239;-58
2024/01/21 04:49:51;;;;;;;2.80;1.80;;;;;20.10;100949.00;;;;2041148;28;20224;-59
2024/01/21 04:50:52;;;;;;;3.97;2.03;;;;;20.10;100943.00;;;;2038389;28;20955;-58
2024/01/21 04:51:52;;;;;;;2.87;1.73;;;;;20.10;100938.00;;;;2042087;28;20234;-59
2024/01/21 04:52:53;;;;;;;2.67;1.40;;;;;20.10;100940.00;;;;2046164;28;20219;-59
2024/01/21 04:53:53;;;;;;;2.57;1.37;;;;;20.10;100941.00;;;;2042988;28;21076;-60
2024/01/21 04:54:53;;;;;;;3.17;1.47;;;;;20.10;100922.00;;;;2042089;28;20244;-59
2024/01/21 04:55:54;;;;;;;3.17;1.63;;;;;20.10;100943.00;;;;2041955;28;20274;-59
2024/01/21 04:56:54;;;;;;;2.17;1.00;;;;;20.10;100938.00;;;;2044663;28;20228;-59
2024/01/21 04:57:54;;;;;;;2.73;1.50;;;;;20.10;100940.00;;;;2037007;28;20224;-59